sensor_id;sensor_type;location;lat;lon;timestamp;P1;durP1;ratioP1;P2;durP2;ratioP2
20669;SDS011;10494;50.868;4.180;2022-10-04T00:03:09;22.58;;;10.73;;
20669;SDS011;10494;50.868;4.180;2022-10-04T00:05:41;17.80;;;9.82;;
20669;SDS011;10494;50.868;4.180;2022-10-04T00:10:44;13.65;;;8.93;;
20669;SDS011;10494;50.868;4.180;2022-10-04T00:13:15;15.40;;;8.95;;
20669;SDS011;10494;50.868;4.180;2022-10-04T00:15:46;15.93;;;8.40;;
20669;SDS011;10494;50.868;4.180;2022-10-04T00:18:22;15.10;;;8.77;;
20669;SDS011;10494;50.868;4.180;2022-10-04T00:20:57;17.20;;;8.98;;
20669;SDS011;10494;50.868;4.180;2022-10-04T00:23:27;13.05;;;9.38;;
20669;SDS011;10494;50.868;4.180;2022-10-04T00:26:05;18.10;;;10.07;;
20669;SDS011;10494;50.868;4.180;2022-10-04T00:28:47;16.88;;;9.68;;
20669;SDS011;10494;50.868;4.180;2022-10-04T00:31:26;15.10;;;9.30;;
20669;SDS011;10494;50.868;4.180;2022-10-04T00:36:33;17.17;;;10.05;;
20669;SDS011;10494;50.868;4.180;2022-10-04T00:42:05;17.23;;;10.10;;
20669;SDS011;10494;50.868;4.180;2022-10-04T00:49:52;16.70;;;9.80;;
20669;SDS011;10494;50.868;4.180;2022-10-04T00:52:26;19.60;;;9.70;;
20669;SDS011;10494;50.868;4.180;2022-10-04T00:54:57;15.73;;;9.43;;
20669;SDS011;10494;50.868;4.180;2022-10-04T00:59:59;21.10;;;10.45;;
20669;SDS011;10494;50.868;4.180;2022-10-04T01:02:34;14.32;;;9.75;;
20669;SDS011;10494;50.868;4.180;2022-10-04T01:05:14;19.80;;;10.53;;
20669;SDS011;10494;50.868;4.180;2022-10-04T01:07:45;14.83;;;10.17;;
20669;SDS011;10494;50.868;4.180;2022-10-04T01:12:48;17.43;;;10.03;;
20669;SDS011;10494;50.868;4.180;2022-10-04T01:20:49;17.98;;;9.60;;
20669;SDS011;10494;50.868;4.180;2022-10-04T01:29:04;17.93;;;9.27;;
20669;SDS011;10494;50.868;4.180;2022-10-04T01:31:34;13.23;;;8.65;;
20669;SDS011;10494;50.868;4.180;2022-10-04T01:34:03;15.65;;;8.80;;
20669;SDS011;10494;50.868;4.180;2022-10-04T01:36:29;14.07;;;9.57;;
20669;SDS011;10494;50.868;4.180;2022-10-04T01:38:56;15.67;;;9.60;;
20669;SDS011;10494;50.868;4.180;2022-10-04T01:41:39;11.57;;;9.07;;
20669;SDS011;10494;50.868;4.180;2022-10-04T01:44:21;17.95;;;9.50;;
20669;SDS011;10494;50.868;4.180;2022-10-04T01:47:11;17.13;;;11.07;;
20669;SDS011;10494;50.868;4.180;2022-10-04T01:49:40;16.50;;;10.07;;
20669;SDS011;10494;50.868;4.180;2022-10-04T01:52:11;18.20;;;9.75;;
20669;SDS011;10494;50.868;4.180;2022-10-04T01:54:57;15.43;;;10.27;;
20669;SDS011;10494;50.868;4.180;2022-10-04T01:57:31;14.17;;;9.90;;
20669;SDS011;10494;50.868;4.180;2022-10-04T02:00:03;16.87;;;9.77;;
20669;SDS011;10494;50.868;4.180;2022-10-04T02:05:29;15.37;;;9.80;;
20669;SDS011;10494;50.868;4.180;2022-10-04T02:08:04;19.67;;;10.27;;
20669;SDS011;10494;50.868;4.180;2022-10-04T02:10:40;20.17;;;10.73;;
20669;SDS011;10494;50.868;4.180;2022-10-04T02:13:08;18.17;;;9.97;;
20669;SDS011;10494;50.868;4.180;2022-10-04T02:15:36;20.10;;;11.67;;
20669;SDS011;10494;50.868;4.180;2022-10-04T02:18:11;28.60;;;10.97;;
20669;SDS011;10494;50.868;4.180;2022-10-04T02:20:39;16.53;;;11.00;;
20669;SDS011;10494;50.868;4.180;2022-10-04T02:23:06;19.47;;;11.23;;
20669;SDS011;10494;50.868;4.180;2022-10-04T02:25:32;18.57;;;11.27;;
20669;SDS011;10494;50.868;4.180;2022-10-04T02:28:00;21.80;;;11.30;;
20669;SDS011;10494;50.868;4.180;2022-10-04T02:30:26;19.97;;;10.87;;
20669;SDS011;10494;50.868;4.180;2022-10-04T02:32:55;18.97;;;11.13;;
20669;SDS011;10494;50.868;4.180;2022-10-04T02:35:22;20.40;;;11.17;;
20669;SDS011;10494;50.868;4.180;2022-10-04T02:38:37;18.87;;;10.23;;
20669;SDS011;10494;50.868;4.180;2022-10-04T02:41:03;20.17;;;11.07;;
20669;SDS011;10494;50.868;4.180;2022-10-04T02:46:24;18.47;;;11.47;;
20669;SDS011;10494;50.868;4.180;2022-10-04T02:48:56;17.33;;;10.40;;
20669;SDS011;10494;50.868;4.180;2022-10-04T02:56:49;20.07;;;9.30;;
20669;SDS011;10494;50.868;4.180;2022-10-04T02:59:17;21.03;;;9.63;;
20669;SDS011;10494;50.868;4.180;2022-10-04T03:01:58;18.13;;;9.20;;
20669;SDS011;10494;50.868;4.180;2022-10-04T03:04:30;16.73;;;9.87;;
20669;SDS011;10494;50.868;4.180;2022-10-04T03:07:01;14.53;;;9.50;;
20669;SDS011;10494;50.868;4.180;2022-10-04T03:09:30;17.58;;;8.82;;
20669;SDS011;10494;50.868;4.180;2022-10-04T03:11:56;11.48;;;8.48;;
20669;SDS011;10494;50.868;4.180;2022-10-04T03:14:26;14.43;;;8.40;;
20669;SDS011;10494;50.868;4.180;2022-10-04T03:16:53;12.27;;;8.73;;
20669;SDS011;10494;50.868;4.180;2022-10-04T03:19:21;14.67;;;9.83;;
20669;SDS011;10494;50.868;4.180;2022-10-04T03:21:49;17.20;;;10.60;;
20669;SDS011;10494;50.868;4.180;2022-10-04T03:24:21;22.33;;;11.97;;
20669;SDS011;10494;50.868;4.180;2022-10-04T03:26:52;24.00;;;11.87;;
20669;SDS011;10494;50.868;4.180;2022-10-04T03:29:20;26.17;;;12.03;;
20669;SDS011;10494;50.868;4.180;2022-10-04T03:31:49;27.70;;;13.50;;
20669;SDS011;10494;50.868;4.180;2022-10-04T03:35:19;25.27;;;14.30;;
20669;SDS011;10494;50.868;4.180;2022-10-04T03:37:24;26.87;;;13.17;;
20669;SDS011;10494;50.868;4.180;2022-10-04T03:39:51;17.83;;;12.13;;
20669;SDS011;10494;50.868;4.180;2022-10-04T03:42:23;24.30;;;12.47;;
20669;SDS011;10494;50.868;4.180;2022-10-04T03:44:55;21.77;;;12.17;;
20669;SDS011;10494;50.868;4.180;2022-10-04T03:47:26;19.97;;;12.30;;
20669;SDS011;10494;50.868;4.180;2022-10-04T03:49:57;23.77;;;12.50;;
20669;SDS011;10494;50.868;4.180;2022-10-04T03:52:29;43.03;;;12.17;;
20669;SDS011;10494;50.868;4.180;2022-10-04T03:54:58;26.43;;;11.83;;
20669;SDS011;10494;50.868;4.180;2022-10-04T03:57:26;22.00;;;10.87;;
20669;SDS011;10494;50.868;4.180;2022-10-04T03:59:52;18.97;;;10.10;;
20669;SDS011;10494;50.868;4.180;2022-10-04T04:07:45;23.60;;;11.87;;
20669;SDS011;10494;50.868;4.180;2022-10-04T04:10:20;35.80;;;12.13;;
20669;SDS011;10494;50.868;4.180;2022-10-04T04:12:56;28.17;;;12.90;;
20669;SDS011;10494;50.868;4.180;2022-10-04T04:15:31;26.27;;;12.90;;
20669;SDS011;10494;50.868;4.180;2022-10-04T04:18:02;23.73;;;12.23;;
20669;SDS011;10494;50.868;4.180;2022-10-04T04:20:36;29.17;;;12.33;;
20669;SDS011;10494;50.868;4.180;2022-10-04T04:25:51;25.37;;;12.27;;
20669;SDS011;10494;50.868;4.180;2022-10-04T04:28:24;27.50;;;13.13;;
20669;SDS011;10494;50.868;4.180;2022-10-04T04:30:59;22.13;;;12.77;;
20669;SDS011;10494;50.868;4.180;2022-10-04T04:36:10;28.17;;;12.43;;
20669;SDS011;10494;50.868;4.180;2022-10-04T04:38:36;42.30;;;12.30;;
20669;SDS011;10494;50.868;4.180;2022-10-04T04:41:23;24.50;;;12.53;;
20669;SDS011;10494;50.868;4.180;2022-10-04T04:43:50;20.60;;;12.47;;
20669;SDS011;10494;50.868;4.180;2022-10-04T04:46:16;24.30;;;12.47;;
20669;SDS011;10494;50.868;4.180;2022-10-04T04:48:42;28.40;;;13.23;;
20669;SDS011;10494;50.868;4.180;2022-10-04T04:51:13;25.47;;;13.10;;
20669;SDS011;10494;50.868;4.180;2022-10-04T04:53:44;29.50;;;12.57;;
20669;SDS011;10494;50.868;4.180;2022-10-04T04:56:11;23.73;;;12.87;;
20669;SDS011;10494;50.868;4.180;2022-10-04T04:58:43;26.93;;;12.20;;
20669;SDS011;10494;50.868;4.180;2022-10-04T05:04:03;26.90;;;11.90;;
20669;SDS011;10494;50.868;4.180;2022-10-04T05:06:43;19.80;;;11.20;;
20669;SDS011;10494;50.868;4.180;2022-10-04T05:09:24;27.17;;;11.60;;
20669;SDS011;10494;50.868;4.180;2022-10-04T05:12:01;22.90;;;11.17;;
20669;SDS011;10494;50.868;4.180;2022-10-04T05:14:48;22.70;;;11.07;;
20669;SDS011;10494;50.868;4.180;2022-10-04T05:17:17;25.73;;;12.47;;
20669;SDS011;10494;50.868;4.180;2022-10-04T05:19:57;20.80;;;10.50;;
20669;SDS011;10494;50.868;4.180;2022-10-04T05:22:24;25.50;;;11.10;;
20669;SDS011;10494;50.868;4.180;2022-10-04T05:24:53;25.03;;;11.23;;
20669;SDS011;10494;50.868;4.180;2022-10-04T05:33:03;20.63;;;10.10;;
20669;SDS011;10494;50.868;4.180;2022-10-04T05:35:37;17.93;;;9.60;;
20669;SDS011;10494;50.868;4.180;2022-10-04T05:38:26;31.93;;;10.00;;
20669;SDS011;10494;50.868;4.180;2022-10-04T05:41:00;32.70;;;10.03;;
20669;SDS011;10494;50.868;4.180;2022-10-04T05:48:42;40.40;;;10.23;;
20669;SDS011;10494;50.868;4.180;2022-10-04T05:51:17;32.70;;;8.87;;
20669;SDS011;10494;50.868;4.180;2022-10-04T05:53:44;19.33;;;10.37;;
20669;SDS011;10494;50.868;4.180;2022-10-04T05:59:12;21.37;;;9.87;;
20669;SDS011;10494;50.868;4.180;2022-10-04T06:04:52;50.17;;;9.77;;
20669;SDS011;10494;50.868;4.180;2022-10-04T06:08:04;21.13;;;9.53;;
20669;SDS011;10494;50.868;4.180;2022-10-04T06:11:13;14.90;;;8.80;;
20669;SDS011;10494;50.868;4.180;2022-10-04T06:16:10;15.73;;;8.07;;
20669;SDS011;10494;50.868;4.180;2022-10-04T06:19:06;37.93;;;9.83;;
20669;SDS011;10494;50.868;4.180;2022-10-04T06:24:28;27.17;;;9.37;;
20669;SDS011;10494;50.868;4.180;2022-10-04T06:26:58;29.03;;;8.97;;
20669;SDS011;10494;50.868;4.180;2022-10-04T06:30:30;17.47;;;9.53;;
20669;SDS011;10494;50.868;4.180;2022-10-04T06:36:01;28.70;;;10.57;;
20669;SDS011;10494;50.868;4.180;2022-10-04T06:44:35;20.70;;;9.30;;
20669;SDS011;10494;50.868;4.180;2022-10-04T06:49:53;41.30;;;12.83;;
20669;SDS011;10494;50.868;4.180;2022-10-04T07:03:55;24.80;;;11.30;;
20669;SDS011;10494;50.868;4.180;2022-10-04T07:09:54;21.67;;;11.13;;
20669;SDS011;10494;50.868;4.180;2022-10-04T07:12:42;28.83;;;11.45;;
20669;SDS011;10494;50.868;4.180;2022-10-04T07:15:16;20.85;;;11.38;;
20669;SDS011;10494;50.868;4.180;2022-10-04T07:17:46;27.00;;;12.60;;
20669;SDS011;10494;50.868;4.180;2022-10-04T07:20:17;26.60;;;12.63;;
20669;SDS011;10494;50.868;4.180;2022-10-04T07:22:56;26.92;;;11.80;;
20669;SDS011;10494;50.868;4.180;2022-10-04T07:25:28;25.10;;;11.50;;
20669;SDS011;10494;50.868;4.180;2022-10-04T07:28:03;16.55;;;10.10;;
20669;SDS011;10494;50.868;4.180;2022-10-04T07:30:51;15.95;;;9.15;;
20669;SDS011;10494;50.868;4.180;2022-10-04T07:33:30;11.13;;;6.97;;
20669;SDS011;10494;50.868;4.180;2022-10-04T07:36:09;15.02;;;6.95;;
20669;SDS011;10494;50.868;4.180;2022-10-04T07:39:12;12.07;;;5.93;;
20669;SDS011;10494;50.868;4.180;2022-10-04T07:41:51;11.35;;;5.65;;
20669;SDS011;10494;50.868;4.180;2022-10-04T07:46:59;10.10;;;5.72;;
20669;SDS011;10494;50.868;4.180;2022-10-04T07:49:46;14.77;;;5.35;;
20669;SDS011;10494;50.868;4.180;2022-10-04T08:08:43;15.77;;;6.28;;
20669;SDS011;10494;50.868;4.180;2022-10-04T08:11:29;12.35;;;6.20;;
20669;SDS011;10494;50.868;4.180;2022-10-04T08:14:23;17.65;;;6.43;;
20669;SDS011;10494;50.868;4.180;2022-10-04T08:27:56;12.35;;;5.97;;
20669;SDS011;10494;50.868;4.180;2022-10-04T08:34:03;9.13;;;5.38;;
20669;SDS011;10494;50.868;4.180;2022-10-04T08:36:57;11.27;;;5.70;;
20669;SDS011;10494;50.868;4.180;2022-10-04T08:44:54;11.75;;;5.53;;
20669;SDS011;10494;50.868;4.180;2022-10-04T08:53:27;12.93;;;5.63;;
20669;SDS011;10494;50.868;4.180;2022-10-04T08:56:20;13.10;;;5.00;;
20669;SDS011;10494;50.868;4.180;2022-10-04T08:59:35;15.70;;;5.80;;
20669;SDS011;10494;50.868;4.180;2022-10-04T09:02:20;18.55;;;6.30;;
20669;SDS011;10494;50.868;4.180;2022-10-04T09:08:08;12.00;;;5.35;;
20669;SDS011;10494;50.868;4.180;2022-10-04T09:16:25;19.05;;;6.75;;
20669;SDS011;10494;50.868;4.180;2022-10-04T09:19:21;10.52;;;5.10;;
20669;SDS011;10494;50.868;4.180;2022-10-04T09:30:01;10.27;;;4.63;;
20669;SDS011;10494;50.868;4.180;2022-10-04T09:32:44;17.58;;;6.07;;
20669;SDS011;10494;50.868;4.180;2022-10-04T09:38:45;10.45;;;4.47;;
20669;SDS011;10494;50.868;4.180;2022-10-04T09:41:33;11.68;;;5.03;;
20669;SDS011;10494;50.868;4.180;2022-10-04T09:47:15;12.23;;;4.95;;
20669;SDS011;10494;50.868;4.180;2022-10-04T09:50:08;10.07;;;5.13;;
20669;SDS011;10494;50.868;4.180;2022-10-04T09:53:04;14.25;;;5.20;;
20669;SDS011;10494;50.868;4.180;2022-10-04T10:07:33;12.27;;;5.55;;
20669;SDS011;10494;50.868;4.180;2022-10-04T10:13:31;12.25;;;4.90;;
20669;SDS011;10494;50.868;4.180;2022-10-04T10:19:33;12.38;;;5.28;;
20669;SDS011;10494;50.868;4.180;2022-10-04T10:27:52;14.38;;;5.68;;
20669;SDS011;10494;50.868;4.180;2022-10-04T10:33:07;10.82;;;5.40;;
20669;SDS011;10494;50.868;4.180;2022-10-04T10:39:02;7.93;;;5.47;;
20669;SDS011;10494;50.868;4.180;2022-10-04T10:47:42;10.20;;;5.55;;
20669;SDS011;10494;50.868;4.180;2022-10-04T10:50:23;15.35;;;5.18;;
20669;SDS011;10494;50.868;4.180;2022-10-04T10:56:03;11.13;;;5.90;;
20669;SDS011;10494;50.868;4.180;2022-10-04T11:12:41;13.48;;;5.60;;
20669;SDS011;10494;50.868;4.180;2022-10-04T11:54:41;16.48;;;7.28;;
20669;SDS011;10494;50.868;4.180;2022-10-04T11:57:42;11.77;;;6.28;;
20669;SDS011;10494;50.868;4.180;2022-10-04T12:05:57;9.25;;;5.95;;
20669;SDS011;10494;50.868;4.180;2022-10-04T12:14:41;11.60;;;6.93;;
20669;SDS011;10494;50.868;4.180;2022-10-04T12:17:43;12.40;;;6.50;;
20669;SDS011;10494;50.868;4.180;2022-10-04T12:30:01;11.65;;;6.18;;
20669;SDS011;10494;50.868;4.180;2022-10-04T12:35:59;13.63;;;5.10;;
20669;SDS011;10494;50.868;4.180;2022-10-04T12:38:51;9.90;;;5.72;;
20669;SDS011;10494;50.868;4.180;2022-10-04T12:44:14;11.00;;;5.63;;
20669;SDS011;10494;50.868;4.180;2022-10-04T12:49:49;9.27;;;4.20;;
20669;SDS011;10494;50.868;4.180;2022-10-04T12:52:21;8.57;;;5.15;;
20669;SDS011;10494;50.868;4.180;2022-10-04T12:54:53;15.27;;;5.45;;
20669;SDS011;10494;50.868;4.180;2022-10-04T12:57:31;6.88;;;4.40;;
20669;SDS011;10494;50.868;4.180;2022-10-04T13:00:15;8.57;;;4.90;;
20669;SDS011;10494;50.868;4.180;2022-10-04T13:05:22;9.45;;;4.80;;
20669;SDS011;10494;50.868;4.180;2022-10-04T13:10:49;6.85;;;4.18;;
20669;SDS011;10494;50.868;4.180;2022-10-04T13:35:23;8.68;;;3.65;;
20669;SDS011;10494;50.868;4.180;2022-10-04T13:49:16;9.73;;;4.18;;
20669;SDS011;10494;50.868;4.180;2022-10-04T13:51:45;7.07;;;3.97;;
20669;SDS011;10494;50.868;4.180;2022-10-04T13:54:53;9.15;;;4.00;;
20669;SDS011;10494;50.868;4.180;2022-10-04T14:00:44;6.05;;;3.55;;
20669;SDS011;10494;50.868;4.180;2022-10-04T14:03:44;8.27;;;3.88;;
20669;SDS011;10494;50.868;4.180;2022-10-04T14:31:31;6.63;;;3.30;;
20669;SDS011;10494;50.868;4.180;2022-10-04T14:51:44;4.70;;;2.30;;
20669;SDS011;10494;50.868;4.180;2022-10-04T14:54:25;8.60;;;2.92;;
20669;SDS011;10494;50.868;4.180;2022-10-04T14:57:19;8.82;;;2.90;;
20669;SDS011;10494;50.868;4.180;2022-10-04T15:00:35;4.55;;;2.40;;
20669;SDS011;10494;50.868;4.180;2022-10-04T15:03:18;4.55;;;2.45;;
20669;SDS011;10494;50.868;4.180;2022-10-04T15:06:04;5.30;;;2.47;;
20669;SDS011;10494;50.868;4.180;2022-10-04T15:11:18;7.13;;;2.28;;
20669;SDS011;10494;50.868;4.180;2022-10-04T15:13:59;10.75;;;2.63;;
20669;SDS011;10494;50.868;4.180;2022-10-04T15:16:50;4.47;;;2.28;;
20669;SDS011;10494;50.868;4.180;2022-10-04T15:24:48;6.63;;;2.50;;
20669;SDS011;10494;50.868;4.180;2022-10-04T15:38:29;4.72;;;3.00;;
20669;SDS011;10494;50.868;4.180;2022-10-04T15:54:44;8.63;;;2.55;;
20669;SDS011;10494;50.868;4.180;2022-10-04T15:57:50;5.10;;;3.00;;
20669;SDS011;10494;50.868;4.180;2022-10-04T16:03:44;7.50;;;3.10;;
20669;SDS011;10494;50.868;4.180;2022-10-04T16:06:32;6.63;;;3.30;;
20669;SDS011;10494;50.868;4.180;2022-10-04T16:12:06;17.70;;;3.00;;
20669;SDS011;10494;50.868;4.180;2022-10-04T16:25:52;5.88;;;3.40;;
20669;SDS011;10494;50.868;4.180;2022-10-04T16:34:07;22.80;;;4.38;;
20669;SDS011;10494;50.868;4.180;2022-10-04T16:36:46;6.55;;;3.20;;
20669;SDS011;10494;50.868;4.180;2022-10-04T16:56:08;11.02;;;5.07;;
20669;SDS011;10494;50.868;4.180;2022-10-04T17:04:05;9.85;;;3.65;;
20669;SDS011;10494;50.868;4.180;2022-10-04T17:06:39;11.00;;;4.22;;
20669;SDS011;10494;50.868;4.180;2022-10-04T17:12:23;9.93;;;4.50;;
20669;SDS011;10494;50.868;4.180;2022-10-04T17:28:57;8.35;;;5.13;;
20669;SDS011;10494;50.868;4.180;2022-10-04T17:31:42;8.20;;;5.15;;
20669;SDS011;10494;50.868;4.180;2022-10-04T17:47:44;11.15;;;6.85;;
20669;SDS011;10494;50.868;4.180;2022-10-04T17:50:55;12.82;;;6.55;;
20669;SDS011;10494;50.868;4.180;2022-10-04T17:53:48;15.65;;;7.45;;
20669;SDS011;10494;50.868;4.180;2022-10-04T17:56:39;12.90;;;6.88;;
20669;SDS011;10494;50.868;4.180;2022-10-04T17:59:09;11.13;;;7.05;;
20669;SDS011;10494;50.868;4.180;2022-10-04T18:01:44;9.20;;;6.88;;
20669;SDS011;10494;50.868;4.180;2022-10-04T18:09:20;14.40;;;6.90;;
20669;SDS011;10494;50.868;4.180;2022-10-04T18:11:54;14.55;;;8.40;;
20669;SDS011;10494;50.868;4.180;2022-10-04T18:16:59;12.45;;;8.27;;
20669;SDS011;10494;50.868;4.180;2022-10-04T18:19:39;14.70;;;7.95;;
20669;SDS011;10494;50.868;4.180;2022-10-04T18:22:18;13.98;;;8.10;;
20669;SDS011;10494;50.868;4.180;2022-10-04T18:24:46;14.43;;;8.07;;
20669;SDS011;10494;50.868;4.180;2022-10-04T18:27:25;14.38;;;7.28;;
20669;SDS011;10494;50.868;4.180;2022-10-04T18:30:12;10.90;;;7.00;;
20669;SDS011;10494;50.868;4.180;2022-10-04T18:32:46;12.23;;;6.75;;
20669;SDS011;10494;50.868;4.180;2022-10-04T18:37:52;14.57;;;7.13;;
20669;SDS011;10494;50.868;4.180;2022-10-04T18:40:42;12.63;;;7.35;;
20669;SDS011;10494;50.868;4.180;2022-10-04T18:43:23;12.10;;;6.82;;
20669;SDS011;10494;50.868;4.180;2022-10-04T18:46:04;15.25;;;8.05;;
20669;SDS011;10494;50.868;4.180;2022-10-04T18:48:49;15.65;;;8.57;;
20669;SDS011;10494;50.868;4.180;2022-10-04T18:51:20;18.17;;;8.45;;
20669;SDS011;10494;50.868;4.180;2022-10-04T18:56:46;18.27;;;8.93;;
20669;SDS011;10494;50.868;4.180;2022-10-04T19:11:37;16.63;;;8.10;;
20669;SDS011;10494;50.868;4.180;2022-10-04T19:14:24;18.77;;;9.48;;
20669;SDS011;10494;50.868;4.180;2022-10-04T19:19:50;18.67;;;9.70;;
20669;SDS011;10494;50.868;4.180;2022-10-04T19:27:34;18.70;;;10.50;;
20669;SDS011;10494;50.868;4.180;2022-10-04T19:30:20;17.75;;;9.63;;
20669;SDS011;10494;50.868;4.180;2022-10-04T19:33:10;15.75;;;9.60;;
20669;SDS011;10494;50.868;4.180;2022-10-04T19:43:47;15.27;;;8.93;;
20669;SDS011;10494;50.868;4.180;2022-10-04T19:46:22;22.00;;;9.57;;
20669;SDS011;10494;50.868;4.180;2022-10-04T19:48:50;15.98;;;9.30;;
20669;SDS011;10494;50.868;4.180;2022-10-04T19:54:13;18.30;;;9.45;;
20669;SDS011;10494;50.868;4.180;2022-10-04T19:56:45;16.63;;;9.50;;
20669;SDS011;10494;50.868;4.180;2022-10-04T20:01:40;17.98;;;9.40;;
20669;SDS011;10494;50.868;4.180;2022-10-04T20:04:09;19.48;;;10.10;;
20669;SDS011;10494;50.868;4.180;2022-10-04T20:06:59;18.27;;;9.70;;
20669;SDS011;10494;50.868;4.180;2022-10-04T20:12:01;17.00;;;9.23;;
20669;SDS011;10494;50.868;4.180;2022-10-04T20:22:02;17.55;;;9.32;;
20669;SDS011;10494;50.868;4.180;2022-10-04T20:27:04;17.33;;;9.35;;
20669;SDS011;10494;50.868;4.180;2022-10-04T20:32:09;15.70;;;9.48;;
20669;SDS011;10494;50.868;4.180;2022-10-04T20:37:03;14.85;;;9.13;;
20669;SDS011;10494;50.868;4.180;2022-10-04T20:42:16;16.30;;;9.07;;
20669;SDS011;10494;50.868;4.180;2022-10-04T20:44:56;14.55;;;9.35;;
20669;SDS011;10494;50.868;4.180;2022-10-04T20:50:15;15.98;;;9.00;;
20669;SDS011;10494;50.868;4.180;2022-10-04T20:52:49;17.63;;;8.23;;
20669;SDS011;10494;50.868;4.180;2022-10-04T20:58:03;16.27;;;8.75;;
20669;SDS011;10494;50.868;4.180;2022-10-04T21:00:57;12.90;;;8.68;;
20669;SDS011;10494;50.868;4.180;2022-10-04T21:03:34;12.40;;;8.13;;
20669;SDS011;10494;50.868;4.180;2022-10-04T21:06:04;15.63;;;7.53;;
20669;SDS011;10494;50.868;4.180;2022-10-04T21:08:32;14.77;;;7.82;;
20669;SDS011;10494;50.868;4.180;2022-10-04T21:13:42;17.30;;;7.85;;
20669;SDS011;10494;50.868;4.180;2022-10-04T21:24:41;13.35;;;7.55;;
20669;SDS011;10494;50.868;4.180;2022-10-04T21:29:55;15.95;;;7.90;;
20669;SDS011;10494;50.868;4.180;2022-10-04T21:32:22;18.02;;;8.75;;
20669;SDS011;10494;50.868;4.180;2022-10-04T21:34:49;13.55;;;8.82;;
20669;SDS011;10494;50.868;4.180;2022-10-04T21:37:15;14.80;;;8.70;;
20669;SDS011;10494;50.868;4.180;2022-10-04T21:39:41;16.27;;;8.90;;
20669;SDS011;10494;50.868;4.180;2022-10-04T21:42:07;17.52;;;8.93;;
20669;SDS011;10494;50.868;4.180;2022-10-04T21:44:32;12.20;;;8.05;;
20669;SDS011;10494;50.868;4.180;2022-10-04T21:46:58;15.98;;;8.65;;
20669;SDS011;10494;50.868;4.180;2022-10-04T21:49:23;14.10;;;8.68;;
20669;SDS011;10494;50.868;4.180;2022-10-04T21:51:49;18.13;;;9.15;;
20669;SDS011;10494;50.868;4.180;2022-10-04T21:54:15;14.93;;;9.30;;
20669;SDS011;10494;50.868;4.180;2022-10-04T21:56:40;17.98;;;9.30;;
20669;SDS011;10494;50.868;4.180;2022-10-04T21:59:06;17.10;;;9.05;;
20669;SDS011;10494;50.868;4.180;2022-10-04T22:01:32;16.25;;;9.15;;
20669;SDS011;10494;50.868;4.180;2022-10-04T22:03:57;17.70;;;9.45;;
20669;SDS011;10494;50.868;4.180;2022-10-04T22:06:23;23.25;;;9.52;;
20669;SDS011;10494;50.868;4.180;2022-10-04T22:08:48;19.15;;;9.45;;
20669;SDS011;10494;50.868;4.180;2022-10-04T22:11:14;14.40;;;8.27;;
20669;SDS011;10494;50.868;4.180;2022-10-04T22:13:40;27.88;;;9.52;;
20669;SDS011;10494;50.868;4.180;2022-10-04T22:16:05;15.27;;;8.02;;
20669;SDS011;10494;50.868;4.180;2022-10-04T22:18:31;14.07;;;8.55;;
20669;SDS011;10494;50.868;4.180;2022-10-04T22:20:57;16.23;;;8.40;;
20669;SDS011;10494;50.868;4.180;2022-10-04T22:23:25;13.88;;;8.73;;
20669;SDS011;10494;50.868;4.180;2022-10-04T22:25:52;14.93;;;8.40;;
20669;SDS011;10494;50.868;4.180;2022-10-04T22:28:25;17.38;;;9.55;;
20669;SDS011;10494;50.868;4.180;2022-10-04T22:30:53;14.55;;;7.65;;
20669;SDS011;10494;50.868;4.180;2022-10-04T22:35:58;18.02;;;8.80;;
20669;SDS011;10494;50.868;4.180;2022-10-04T22:38:55;14.00;;;8.35;;
20669;SDS011;10494;50.868;4.180;2022-10-04T22:41:25;17.38;;;7.85;;
20669;SDS011;10494;50.868;4.180;2022-10-04T22:43:57;15.50;;;8.90;;
20669;SDS011;10494;50.868;4.180;2022-10-04T22:46:35;16.75;;;9.07;;
20669;SDS011;10494;50.868;4.180;2022-10-04T22:49:07;13.30;;;8.40;;
20669;SDS011;10494;50.868;4.180;2022-10-04T22:51:35;18.05;;;8.80;;
20669;SDS011;10494;50.868;4.180;2022-10-04T22:54:07;23.13;;;9.73;;
20669;SDS011;10494;50.868;4.180;2022-10-04T22:56:37;12.27;;;8.30;;
20669;SDS011;10494;50.868;4.180;2022-10-04T22:59:03;17.05;;;8.32;;
20669;SDS011;10494;50.868;4.180;2022-10-04T23:01:29;14.40;;;8.75;;
20669;SDS011;10494;50.868;4.180;2022-10-04T23:03:55;16.55;;;9.05;;
20669;SDS011;10494;50.868;4.180;2022-10-04T23:06:22;20.08;;;9.68;;
20669;SDS011;10494;50.868;4.180;2022-10-04T23:08:47;15.63;;;8.57;;
20669;SDS011;10494;50.868;4.180;2022-10-04T23:11:13;12.73;;;7.97;;
20669;SDS011;10494;50.868;4.180;2022-10-04T23:13:38;13.27;;;8.50;;
20669;SDS011;10494;50.868;4.180;2022-10-04T23:16:16;16.42;;;8.52;;
20669;SDS011;10494;50.868;4.180;2022-10-04T23:18:44;13.65;;;7.30;;
20669;SDS011;10494;50.868;4.180;2022-10-04T23:21:23;13.20;;;7.20;;
20669;SDS011;10494;50.868;4.180;2022-10-04T23:23:50;15.10;;;7.90;;
20669;SDS011;10494;50.868;4.180;2022-10-04T23:26:23;13.50;;;7.57;;
20669;SDS011;10494;50.868;4.180;2022-10-04T23:28:55;12.25;;;8.18;;
20669;SDS011;10494;50.868;4.180;2022-10-04T23:31:23;13.02;;;7.60;;
20669;SDS011;10494;50.868;4.180;2022-10-04T23:33:51;11.45;;;6.82;;
20669;SDS011;10494;50.868;4.180;2022-10-04T23:36:19;10.48;;;7.18;;
20669;SDS011;10494;50.868;4.180;2022-10-04T23:38:47;12.38;;;6.95;;
20669;SDS011;10494;50.868;4.180;2022-10-04T23:41:15;10.55;;;6.63;;
20669;SDS011;10494;50.868;4.180;2022-10-04T23:43:42;11.80;;;6.68;;
20669;SDS011;10494;50.868;4.180;2022-10-04T23:46:13;13.32;;;6.75;;
20669;SDS011;10494;50.868;4.180;2022-10-04T23:48:41;13.52;;;6.82;;
20669;SDS011;10494;50.868;4.180;2022-10-04T23:51:09;9.75;;;6.47;;
20669;SDS011;10494;50.868;4.180;2022-10-04T23:53:37;11.50;;;7.05;;
20669;SDS011;10494;50.868;4.180;2022-10-04T23:56:05;12.02;;;6.22;;
20669;SDS011;10494;50.868;4.180;2022-10-04T23:58:37;10.85;;;6.85;;
